Share

Allen, SD

11:59 PM MDT on April 23, 2014 (GMT -0600)
NonFedAWOS MARTINMUNC SD US SUPERAWOS (MK9V6) Elev 3292 ft | 43.17 °N, 101.71 °W | Change Station
Active Advisory: Fire Weather Watch

Current weather conditions updated 24 minutes ago

Mostly Cloudy
Mostly Cloudy
46 °F
Feels Like 41 °F
N
9
Wind Variable Wind from NNW
Gusts 0.0 mph
Sunrise 5:52 AM
Sunset 7:40 PM
Moon Waning Crescent

Tomorrow is forecast to be Cooler than today.

Pressure 29.83 in
Visibility 10.0 miles
Clouds Mostly Cloudy 12000 ft
Windchill 41 °F
Dew Point 37 °F
Humidity 71%
Rainfall -999.00 in
Snow Depth Not available.
UV 0 out of 16
Pollen 11.30 out of 12
Air Quality Not available.
Flu Activity Sporadic
METAR KIEN 240552Z AUTO 00000KT 10SM BKN120 08/02 A2986 RMK AO2 SLP101 T00780017 10128 20072 51029

More Conditions Fewer Conditions

Pressure 29.83 in
Visibility 10.0 miles
Clouds Mostly Cloudy 12000 ft
Windchill 41 °F
Dew Point 37 °F
Humidity 71%
Rainfall -999.00 in
Snow Depth Not available.
UV 0 out of 16
Pollen 11.30 out of 12
Air Quality Not available.
Flu Activity Sporadic
METAR KIEN 240552Z AUTO 00000KT 10SM BKN120 08/02 A2986 RMK AO2 SLP101 T00780017 10128 20072 51029

More Conditions Fewer Conditions

10-Day Weather Forecast

Almanac

Astronomy

Apr. 23, 2014 Rise Set
Actual Time 5:52 AM MDT 7:40 PM MDT
Civil Twilight 5:22 AM MDT 8:10 PM MDT
Nautical Twilight 4:45 AM MDT 8:47 PM MDT
Astronomical Twilight 4:05 AM MDT 9:27 PM MDT
Moon 2:36 AM MDT (4/23) 1:41 PM MDT (4/23)
Length of Visible Light 14h 48m
Length of Day
13h 47m
Tomorrow will be 2m 42s longer.
Waning Crescent, 29% of the Moon is Illuminated
Apr 24
Waning Crescent
Apr 29
New
May 6
First Quarter
May 14
Full
May 21
Last Quarter

Yesterday's Extremes

State Highs State Lows

Community

  • Stacked
    Stacked
  • clouds approaching Red Sox Nation
    clouds approaching Red Sox Nation
  • Balance
    Balance
  • Nestled In
    Nestled In
  • Stunning Sunrise
    Stunning Sunrise

WunderPhotos

Upload Photos

1,704,572 photos uploaded!

WunderBlogs® & News

Nearby

Snow Depth

Station Depth Elevation
North Rapid Creek 10 in 6130 ft
Blind Park 10 in 6890 ft

Coastal Water Temperatures

Place Temperature
No Stations Reporting

Earthquake Activity

City Distance Mag. Time & Date
No recent earthquake activity has been reported nearby.
Minimum magnitude displayed is 2.5.

Nearby Weather Stations

Station Location Temp. Windchill Dew Point Humidity Wind Precip. Elev Updated Type
NonFedAWOS MARTINMUNC , Martin, SD 46 °F 41 °F 37 °F 71% NNW  at  9 mph 0.00 in / hr 3292 ft 11:35 PM MDT MADIS
HADS LITTLE WHITE RIVER NEAR MARTIN 5 SD, Martin, SD 48 °F 48 °F - - North  at  - 0.00 in / hr 3044 ft 11:00 PM MDT MADIS
The Bunkhouse, Martin, SD 46.0 °F 43 °F 36 °F 69% NW  at  6.0 mph 0.00 in / hr 3038 ft 11:59 PM MDT Rapid Fire

Show More Stations Show Fewer Stations

What do you think?

We're not finished. Please let us know what you like, what you don't like, and what you are still missing.